sensor_id;sensor_type;location;lat;lon;timestamp;P1;durP1;ratioP1;P2;durP2;ratioP2
53642;SDS011;39546;45.534;12.048;2023-04-01T00:11:15;6.72;;;5.37;;
53642;SDS011;39546;45.534;12.048;2023-04-01T00:17:18;7.05;;;5.50;;
53642;SDS011;39546;45.534;12.048;2023-04-01T00:23:20;8.52;;;6.40;;
53642;SDS011;39546;45.534;12.048;2023-04-01T00:29:23;7.03;;;4.78;;
53642;SDS011;39546;45.534;12.048;2023-04-01T00:35:29;9.45;;;7.30;;
53642;SDS011;39546;45.534;12.048;2023-04-01T00:41:31;8.45;;;6.03;;
53642;SDS011;39546;45.534;12.048;2023-04-01T00:47:33;8.38;;;6.32;;
53642;SDS011;39546;45.534;12.048;2023-04-01T00:53:37;8.68;;;6.00;;
53642;SDS011;39546;45.534;12.048;2023-04-01T00:59:44;11.27;;;9.23;;
53642;SDS011;39546;45.534;12.048;2023-04-01T01:06:01;10.55;;;8.80;;
53642;SDS011;39546;45.534;12.048;2023-04-01T01:31:24;8.43;;;6.35;;
53642;SDS011;39546;45.534;12.048;2023-04-01T01:37:47;12.48;;;10.15;;
53642;SDS011;39546;45.534;12.048;2023-04-01T01:43:54;11.60;;;7.50;;
53642;SDS011;39546;45.534;12.048;2023-04-01T01:49:58;6.80;;;5.30;;
53642;SDS011;39546;45.534;12.048;2023-04-01T01:56:03;7.87;;;5.15;;
53642;SDS011;39546;45.534;12.048;2023-04-01T02:02:06;10.40;;;8.38;;
53642;SDS011;39546;45.534;12.048;2023-04-01T02:08:21;10.10;;;7.07;;
53642;SDS011;39546;45.534;12.048;2023-04-01T02:14:51;17.90;;;15.05;;
53642;SDS011;39546;45.534;12.048;2023-04-01T02:20:59;9.65;;;6.47;;
53642;SDS011;39546;45.534;12.048;2023-04-01T02:27:02;8.55;;;6.75;;
53642;SDS011;39546;45.534;12.048;2023-04-01T02:33:05;10.95;;;7.00;;
53642;SDS011;39546;45.534;12.048;2023-04-01T02:39:08;14.27;;;6.70;;
53642;SDS011;39546;45.534;12.048;2023-04-01T02:45:11;15.50;;;11.00;;
53642;SDS011;39546;45.534;12.048;2023-04-01T02:51:13;9.27;;;6.07;;
53642;SDS011;39546;45.534;12.048;2023-04-01T02:57:16;10.30;;;7.68;;
53642;SDS011;39546;45.534;12.048;2023-04-01T03:03:18;8.10;;;5.95;;
53642;SDS011;39546;45.534;12.048;2023-04-01T03:09:20;11.55;;;7.10;;
53642;SDS011;39546;45.534;12.048;2023-04-01T03:15:22;8.60;;;6.18;;
53642;SDS011;39546;45.534;12.048;2023-04-01T03:21:24;13.57;;;7.62;;
53642;SDS011;39546;45.534;12.048;2023-04-01T03:27:27;13.05;;;7.87;;
53642;SDS011;39546;45.534;12.048;2023-04-01T03:33:29;10.60;;;7.12;;
53642;SDS011;39546;45.534;12.048;2023-04-01T03:39:32;9.55;;;7.05;;
53642;SDS011;39546;45.534;12.048;2023-04-01T03:45:34;18.48;;;15.52;;
53642;SDS011;39546;45.534;12.048;2023-04-01T03:51:40;15.43;;;10.45;;
53642;SDS011;39546;45.534;12.048;2023-04-01T03:57:44;14.45;;;9.93;;
53642;SDS011;39546;45.534;12.048;2023-04-01T04:03:47;10.65;;;7.40;;
53642;SDS011;39546;45.534;12.048;2023-04-01T04:09:51;11.52;;;8.77;;
53642;SDS011;39546;45.534;12.048;2023-04-01T04:15:53;10.15;;;8.68;;
53642;SDS011;39546;45.534;12.048;2023-04-01T04:21:55;9.57;;;6.35;;
53642;SDS011;39546;45.534;12.048;2023-04-01T04:27:57;7.70;;;4.85;;
53642;SDS011;39546;45.534;12.048;2023-04-01T04:33:59;7.55;;;5.25;;
53642;SDS011;39546;45.534;12.048;2023-04-01T04:40:04;16.67;;;9.90;;
53642;SDS011;39546;45.534;12.048;2023-04-01T04:46:07;10.07;;;7.93;;
53642;SDS011;39546;45.534;12.048;2023-04-01T04:52:13;9.20;;;6.03;;
53642;SDS011;39546;45.534;12.048;2023-04-01T04:58:15;7.90;;;5.47;;
53642;SDS011;39546;45.534;12.048;2023-04-01T05:04:18;9.55;;;7.25;;
53642;SDS011;39546;45.534;12.048;2023-04-01T05:10:20;8.23;;;6.57;;
53642;SDS011;39546;45.534;12.048;2023-04-01T05:16:22;13.10;;;9.63;;
53642;SDS011;39546;45.534;12.048;2023-04-01T05:22:24;9.95;;;7.45;;
53642;SDS011;39546;45.534;12.048;2023-04-01T05:28:27;8.80;;;5.97;;
53642;SDS011;39546;45.534;12.048;2023-04-01T05:34:29;5.57;;;4.40;;
53642;SDS011;39546;45.534;12.048;2023-04-01T05:40:31;6.95;;;4.85;;
53642;SDS011;39546;45.534;12.048;2023-04-01T05:46:34;13.15;;;8.75;;
53642;SDS011;39546;45.534;12.048;2023-04-01T05:52:39;22.55;;;18.15;;
53642;SDS011;39546;45.534;12.048;2023-04-01T05:58:41;47.78;;;38.40;;
53642;SDS011;39546;45.534;12.048;2023-04-01T06:04:43;23.15;;;16.27;;
53642;SDS011;39546;45.534;12.048;2023-04-01T06:11:10;19.30;;;15.10;;
53642;SDS011;39546;45.534;12.048;2023-04-01T06:17:30;23.92;;;19.15;;
53642;SDS011;39546;45.534;12.048;2023-04-01T06:24:12;19.40;;;14.73;;
53642;SDS011;39546;45.534;12.048;2023-04-01T06:36:54;13.88;;;11.15;;
53642;SDS011;39546;45.534;12.048;2023-04-01T06:55:42;14.40;;;10.45;;
53642;SDS011;39546;45.534;12.048;2023-04-01T07:01:59;11.52;;;9.07;;
53642;SDS011;39546;45.534;12.048;2023-04-01T07:08:23;12.52;;;10.50;;
53642;SDS011;39546;45.534;12.048;2023-04-01T07:14:33;17.95;;;13.77;;
53642;SDS011;39546;45.534;12.048;2023-04-01T07:20:38;9.60;;;6.97;;
53642;SDS011;39546;45.534;12.048;2023-04-01T07:26:41;8.85;;;6.32;;
53642;SDS011;39546;45.534;12.048;2023-04-01T07:51:56;7.65;;;4.93;;
53642;SDS011;39546;45.534;12.048;2023-04-01T08:04:28;7.45;;;5.03;;
53642;SDS011;39546;45.534;12.048;2023-04-01T08:10:55;7.70;;;5.62;;
53642;SDS011;39546;45.534;12.048;2023-04-01T08:17:37;12.57;;;9.52;;
53642;SDS011;39546;45.534;12.048;2023-04-01T08:23:52;15.32;;;12.02;;
53642;SDS011;39546;45.534;12.048;2023-04-01T08:29:59;12.18;;;8.50;;
53642;SDS011;39546;45.534;12.048;2023-04-01T08:49:00;10.35;;;5.82;;
53642;SDS011;39546;45.534;12.048;2023-04-01T08:55:36;9.50;;;6.00;;
53642;SDS011;39546;45.534;12.048;2023-04-01T09:02:11;6.32;;;4.45;;
53642;SDS011;39546;45.534;12.048;2023-04-01T09:21:23;5.60;;;3.03;;
53642;SDS011;39546;45.534;12.048;2023-04-01T09:46:37;3.55;;;2.40;;
53642;SDS011;39546;45.534;12.048;2023-04-01T10:18:17;2.95;;;2.42;;
53642;SDS011;39546;45.534;12.048;2023-04-01T10:24:44;5.03;;;3.22;;
53642;SDS011;39546;45.534;12.048;2023-04-01T10:49:44;3.08;;;2.45;;
53642;SDS011;39546;45.534;12.048;2023-04-01T11:28:16;5.43;;;4.10;;
53642;SDS011;39546;45.534;12.048;2023-04-01T12:19:53;4.20;;;2.97;;
53642;SDS011;39546;45.534;12.048;2023-04-01T12:26:27;7.50;;;3.35;;
53642;SDS011;39546;45.534;12.048;2023-04-01T13:44:36;15.32;;;11.50;;
53642;SDS011;39546;45.534;12.048;2023-04-01T13:51:01;10.07;;;5.45;;
53642;SDS011;39546;45.534;12.048;2023-04-01T13:57:29;13.95;;;8.57;;
53642;SDS011;39546;45.534;12.048;2023-04-01T14:10:04;9.13;;;7.07;;
53642;SDS011;39546;45.534;12.048;2023-04-01T14:35:25;9.98;;;5.80;;
53642;SDS011;39546;45.534;12.048;2023-04-01T14:41:55;13.82;;;9.38;;
53642;SDS011;39546;45.534;12.048;2023-04-01T14:54:37;11.07;;;8.20;;
53642;SDS011;39546;45.534;12.048;2023-04-01T15:00:48;14.18;;;7.85;;
53642;SDS011;39546;45.534;12.048;2023-04-01T15:07:19;7.03;;;4.68;;
53642;SDS011;39546;45.534;12.048;2023-04-01T15:26:19;6.87;;;4.20;;
53642;SDS011;39546;45.534;12.048;2023-04-01T15:39:09;7.43;;;4.05;;
53642;SDS011;39546;45.534;12.048;2023-04-01T15:45:26;10.57;;;7.45;;
53642;SDS011;39546;45.534;12.048;2023-04-01T16:04:34;15.48;;;9.27;;
53642;SDS011;39546;45.534;12.048;2023-04-01T16:10:58;14.60;;;5.85;;
53642;SDS011;39546;45.534;12.048;2023-04-01T16:23:55;12.98;;;7.93;;
53642;SDS011;39546;45.534;12.048;2023-04-01T16:42:55;9.23;;;6.18;;
53642;SDS011;39546;45.534;12.048;2023-04-01T16:55:16;18.87;;;8.80;;
53642;SDS011;39546;45.534;12.048;2023-04-01T17:01:47;13.02;;;8.77;;
53642;SDS011;39546;45.534;12.048;2023-04-01T17:20:26;12.18;;;6.25;;
53642;SDS011;39546;45.534;12.048;2023-04-01T17:26:46;11.48;;;7.50;;
53642;SDS011;39546;45.534;12.048;2023-04-01T17:45:53;13.80;;;10.80;;
53642;SDS011;39546;45.534;12.048;2023-04-01T17:58:19;10.20;;;7.80;;
53642;SDS011;39546;45.534;12.048;2023-04-01T19:20:09;27.92;;;24.63;;
53642;SDS011;39546;45.534;12.048;2023-04-01T19:39:17;20.65;;;16.77;;
53642;SDS011;39546;45.534;12.048;2023-04-01T19:45:46;25.02;;;15.18;;
53642;SDS011;39546;45.534;12.048;2023-04-01T20:04:26;42.28;;;29.02;;
53642;SDS011;39546;45.534;12.048;2023-04-01T20:11:00;32.20;;;23.55;;
53642;SDS011;39546;45.534;12.048;2023-04-01T20:49:43;35.28;;;24.85;;
53642;SDS011;39546;45.534;12.048;2023-04-01T21:01:53;20.42;;;16.55;;
53642;SDS011;39546;45.534;12.048;2023-04-01T21:27:11;21.30;;;18.80;;
53642;SDS011;39546;45.534;12.048;2023-04-01T21:33:37;24.73;;;15.50;;
53642;SDS011;39546;45.534;12.048;2023-04-01T22:17:06;13.88;;;10.13;;
53642;SDS011;39546;45.534;12.048;2023-04-01T22:23:25;11.95;;;9.45;;
53642;SDS011;39546;45.534;12.048;2023-04-01T22:29:43;10.55;;;7.78;;
53642;SDS011;39546;45.534;12.048;2023-04-01T22:42:33;9.88;;;7.45;;
53642;SDS011;39546;45.534;12.048;2023-04-01T22:49:07;17.55;;;11.40;;
53642;SDS011;39546;45.534;12.048;2023-04-01T22:55:24;8.80;;;6.47;;
53642;SDS011;39546;45.534;12.048;2023-04-01T23:01:41;16.75;;;12.02;;
53642;SDS011;39546;45.534;12.048;2023-04-01T23:14:57;14.27;;;11.30;;
53642;SDS011;39546;45.534;12.048;2023-04-01T23:27:32;15.15;;;11.02;;
53642;SDS011;39546;45.534;12.048;2023-04-01T23:33:42;12.02;;;8.15;;
53642;SDS011;39546;45.534;12.048;2023-04-01T23:39:48;16.60;;;7.82;;
53642;SDS011;39546;45.534;12.048;2023-04-01T23:45:52;11.75;;;8.60;;
53642;SDS011;39546;45.534;12.048;2023-04-01T23:51:58;16.80;;;12.43;;
